createdAt,value
2018-06-14T00:00:06.949Z,16.99
2018-06-14T00:00:47.511Z,17.08
2018-06-14T00:01:28.086Z,17.06
2018-06-14T00:02:08.642Z,17.09
2018-06-14T00:02:49.220Z,17.02
2018-06-14T00:03:29.774Z,17.01
2018-06-14T00:04:10.428Z,17.04
2018-06-14T00:04:50.987Z,17.02
2018-06-14T00:05:31.565Z,16.99
2018-06-14T00:06:12.143Z,17.05
2018-06-14T00:06:52.710Z,17.06
2018-06-14T00:07:33.278Z,17.02
2018-06-14T00:08:13.850Z,17.04
2018-06-14T00:08:54.434Z,17.04
2018-06-14T00:09:35.011Z,17.04
2018-06-14T00:10:15.573Z,17.02
2018-06-14T00:10:56.132Z,17.05
2018-06-14T00:11:36.685Z,17.02
2018-06-14T00:12:17.250Z,17.01
2018-06-14T00:12:57.827Z,17.05
2018-06-14T00:13:38.401Z,17.04
2018-06-14T00:14:18.974Z,17.02
2018-06-14T00:14:59.527Z,16.99
2018-06-14T00:15:40.108Z,16.99
2018-06-14T00:16:20.657Z,17.02
2018-06-14T00:17:01.212Z,17.04
2018-06-14T00:17:41.786Z,17.04
2018-06-14T00:18:22.346Z,16.99
2018-06-14T00:19:02.941Z,17.01
2018-06-14T00:19:43.425Z,17.06
2018-06-14T00:20:23.999Z,17.08
2018-06-14T00:21:04.581Z,17.08
2018-06-14T00:21:45.132Z,17.14
2018-06-14T00:22:25.679Z,17.08
2018-06-14T00:23:06.233Z,17.16
2018-06-14T00:23:46.784Z,17.08
2018-06-14T00:24:27.343Z,17.09
2018-06-14T00:25:07.940Z,17.12
2018-06-14T00:25:48.518Z,17.11
2018-06-14T00:26:29.076Z,17.05
2018-06-14T00:27:09.636Z,17.09
2018-06-14T00:27:50.196Z,17.14
2018-06-14T00:28:30.760Z,17.15
2018-06-14T00:29:11.313Z,17.09
2018-06-14T00:29:51.861Z,17.14
2018-06-14T00:30:32.408Z,17.08
2018-06-14T00:31:12.987Z,17.08
2018-06-14T00:31:53.566Z,17.16
2018-06-14T00:32:34.156Z,17.12
2018-06-14T00:33:14.712Z,17.06
2018-06-14T00:33:55.297Z,17.14
2018-06-14T00:34:35.870Z,17.14
2018-06-14T00:35:16.442Z,17.08
2018-06-14T00:35:57.007Z,17.08
2018-06-14T00:36:37.570Z,17.11
2018-06-14T00:37:18.125Z,17.09
2018-06-14T00:37:58.704Z,17.15
2018-06-14T00:38:39.272Z,17.16
2018-06-14T00:39:19.821Z,17.15
2018-06-14T00:40:00.378Z,17.23
2018-06-14T00:40:40.960Z,17.12
2018-06-14T00:41:21.511Z,17.16
2018-06-14T00:42:02.075Z,17.19
2018-06-14T00:42:42.630Z,17.23
2018-06-14T00:43:23.185Z,17.15
2018-06-14T00:44:03.801Z,17.11
2018-06-14T00:44:44.305Z,17.15
2018-06-14T00:45:24.869Z,17.16
2018-06-14T00:46:05.380Z,17.14
2018-06-14T00:46:45.917Z,17.09
2018-06-14T00:47:26.461Z,17.12
2018-06-14T00:48:07.028Z,17.11
2018-06-14T00:48:47.576Z,17.09
2018-06-14T00:49:28.130Z,17.11
2018-06-14T00:50:08.687Z,17.15
2018-06-14T00:50:49.241Z,17.12
2018-06-14T00:51:29.815Z,17.06
2018-06-14T00:52:10.396Z,17.22
2018-06-14T00:52:50.969Z,17.09
2018-06-14T00:53:31.538Z,17.23
2018-06-14T00:54:12.082Z,17.19
2018-06-14T00:54:52.642Z,17.24
2018-06-14T00:55:33.216Z,17.27
2018-06-14T00:56:13.769Z,17.22
2018-06-14T00:56:54.293Z,17.14
2018-06-14T00:57:34.847Z,17.24
2018-06-14T00:58:15.395Z,17.26
2018-06-14T00:58:55.948Z,17.23
2018-06-14T00:59:36.493Z,17.14
2018-06-14T01:00:17.029Z,17.09
2018-06-14T01:00:57.580Z,17.16
2018-06-14T01:01:38.125Z,17.23
2018-06-14T01:02:18.681Z,17.11
2018-06-14T01:02:59.232Z,17.2
2018-06-14T01:03:39.821Z,17.24
2018-06-14T01:04:20.379Z,17.23
2018-06-14T01:05:00.949Z,17.22
2018-06-14T01:05:41.512Z,17.26
2018-06-14T01:06:22.074Z,17.2
2018-06-14T01:07:02.632Z,17.11
2018-06-14T01:07:43.190Z,17.19
2018-06-14T01:08:23.735Z,17.16
2018-06-14T01:09:04.301Z,17.14
2018-06-14T01:09:44.837Z,17.19
2018-06-14T01:10:25.385Z,17.15
2018-06-14T01:11:05.943Z,17.11
2018-06-14T01:11:46.508Z,17.16
2018-06-14T01:12:27.058Z,17.14
2018-06-14T01:13:07.615Z,17.14
2018-06-14T01:13:48.204Z,17.24
2018-06-14T01:14:28.763Z,17.14
2018-06-14T01:15:09.334Z,17.19
2018-06-14T01:15:49.896Z,17.23
2018-06-14T01:16:30.447Z,17.11
2018-06-14T01:17:10.996Z,17.23
2018-06-14T01:17:51.561Z,17.15
2018-06-14T01:18:32.116Z,17.24
2018-06-14T01:19:12.673Z,17.26
2018-06-14T01:19:53.252Z,17.16
2018-06-14T01:20:33.837Z,17.23
2018-06-14T01:21:14.396Z,17.22
2018-06-14T01:21:54.957Z,17.12
2018-06-14T01:22:35.517Z,17.19
2018-06-14T01:23:16.068Z,17.24
2018-06-14T01:23:56.639Z,17.14
2018-06-14T01:24:37.195Z,17.16
2018-06-14T01:25:17.750Z,17.22
2018-06-14T01:25:58.318Z,17.11
2018-06-14T01:26:38.875Z,17.2
2018-06-14T01:27:19.453Z,17.2
2018-06-14T01:28:00.024Z,17.15
2018-06-14T01:28:40.572Z,17.06
2018-06-14T01:29:21.135Z,17.12
2018-06-14T01:30:01.716Z,17.11
2018-06-14T01:30:42.318Z,17.14
2018-06-14T01:31:22.889Z,17.2
2018-06-14T01:32:03.431Z,17.06
2018-06-14T01:32:43.977Z,17.02
2018-06-14T01:33:24.538Z,17.06
2018-06-14T01:34:05.089Z,17.04
2018-06-14T01:34:45.651Z,17.06
2018-06-14T01:35:26.216Z,17.08
2018-06-14T01:36:06.777Z,17.09
2018-06-14T01:36:47.341Z,17.11
2018-06-14T01:37:27.914Z,17.08
2018-06-14T01:38:08.491Z,17.09
2018-06-14T01:38:49.046Z,17.08
2018-06-14T01:39:29.605Z,17.08
2018-06-14T01:40:10.171Z,17.04
2018-06-14T01:40:50.746Z,17.02
2018-06-14T01:41:31.317Z,17.01
2018-06-14T01:42:11.878Z,17.01
2018-06-14T01:42:52.445Z,16.99
2018-06-14T01:43:33.004Z,17.08
2018-06-14T01:44:13.576Z,17.04
2018-06-14T01:44:54.181Z,17.04
2018-06-14T01:45:34.847Z,17.04
2018-06-14T01:46:15.350Z,17.02
2018-06-14T01:46:55.912Z,17.04
2018-06-14T01:47:36.475Z,16.99
2018-06-14T01:48:17.040Z,17.01
2018-06-14T01:48:57.590Z,16.97
2018-06-14T01:49:38.168Z,16.91
2018-06-14T01:50:18.735Z,16.9
2018-06-14T01:50:59.305Z,16.96
2018-06-14T01:51:39.881Z,16.93
2018-06-14T01:52:20.454Z,16.94
2018-06-14T01:53:00.997Z,16.94
2018-06-14T01:53:41.558Z,16.9
2018-06-14T01:54:22.110Z,16.94
2018-06-14T01:55:02.646Z,16.9
2018-06-14T01:55:43.212Z,16.96
2018-06-14T01:56:23.764Z,16.97
2018-06-14T01:57:04.321Z,16.94
2018-06-14T01:57:44.873Z,16.9
2018-06-14T01:58:25.421Z,16.96
2018-06-14T01:59:05.989Z,16.94
2018-06-14T01:59:46.578Z,16.94
2018-06-14T02:00:27.157Z,16.93
2018-06-14T02:01:07.699Z,16.91
2018-06-14T02:01:48.257Z,16.96
2018-06-14T02:02:28.806Z,16.9
2018-06-14T02:03:09.362Z,16.89
2018-06-14T02:03:49.922Z,16.86
2018-06-14T02:04:30.525Z,16.89
2018-06-14T02:05:11.053Z,16.91
2018-06-14T02:05:51.578Z,16.83
2018-06-14T02:06:32.135Z,16.81
2018-06-14T02:07:12.680Z,16.81
2018-06-14T02:07:53.229Z,16.83
2018-06-14T02:08:33.782Z,16.69
2018-06-14T02:09:14.321Z,16.72
2018-06-14T02:09:54.880Z,16.69
2018-06-14T02:10:35.440Z,16.84
2018-06-14T02:11:16.006Z,16.66
2018-06-14T02:11:56.590Z,16.65
2018-06-14T02:12:37.145Z,16.69
2018-06-14T02:13:17.732Z,16.75
2018-06-14T02:13:58.294Z,16.66
2018-06-14T02:14:38.852Z,16.72
2018-06-14T02:15:19.492Z,16.69
2018-06-14T02:16:00.045Z,16.69
2018-06-14T02:16:40.652Z,16.76
2018-06-14T02:17:21.233Z,16.65
2018-06-14T02:18:01.836Z,16.69
2018-06-14T02:18:42.391Z,16.66
2018-06-14T02:19:22.958Z,16.64
2018-06-14T02:20:03.534Z,16.64
2018-06-14T02:20:44.091Z,16.61
2018-06-14T02:21:24.630Z,16.61
2018-06-14T02:22:05.205Z,16.68
2018-06-14T02:22:45.767Z,16.61
2018-06-14T02:23:26.389Z,16.61
2018-06-14T02:24:06.918Z,16.64
2018-06-14T02:24:47.501Z,16.58
2018-06-14T02:25:28.052Z,16.58
2018-06-14T02:26:08.601Z,16.61
2018-06-14T02:26:49.157Z,16.64
2018-06-14T02:27:29.709Z,16.56
2018-06-14T02:28:10.280Z,16.65
2018-06-14T02:28:50.870Z,16.65
2018-06-14T02:29:31.443Z,16.65
2018-06-14T02:30:12.013Z,16.58
2018-06-14T02:30:52.567Z,16.58
2018-06-14T02:31:33.126Z,16.61
2018-06-14T02:32:13.694Z,16.58
2018-06-14T02:32:54.245Z,16.61
2018-06-14T02:33:34.812Z,16.61
2018-06-14T02:34:15.369Z,16.6
2018-06-14T02:34:55.969Z,16.66
2018-06-14T02:35:36.533Z,16.65
2018-06-14T02:36:17.100Z,16.58
2018-06-14T02:36:57.661Z,16.64
2018-06-14T02:37:38.227Z,16.56
2018-06-14T02:38:18.787Z,16.64
2018-06-14T02:38:59.369Z,16.58
2018-06-14T02:39:39.916Z,16.56
2018-06-14T02:40:20.507Z,16.57
2018-06-14T02:41:01.070Z,16.58
2018-06-14T02:41:41.637Z,16.56
2018-06-14T02:42:22.253Z,16.6
2018-06-14T02:43:02.768Z,16.51
2018-06-14T02:43:43.318Z,16.54
2018-06-14T02:44:23.896Z,16.56
2018-06-14T02:45:04.435Z,16.57
2018-06-14T02:45:44.985Z,16.54
2018-06-14T02:46:25.562Z,16.54
2018-06-14T02:47:06.132Z,16.51
2018-06-14T02:47:46.699Z,16.51
2018-06-14T02:48:27.275Z,16.51
2018-06-14T02:49:07.829Z,16.47
2018-06-14T02:49:48.390Z,16.47
2018-06-14T02:50:28.948Z,16.51
2018-06-14T02:51:09.490Z,16.47
2018-06-14T02:51:50.046Z,16.47
2018-06-14T02:52:30.639Z,16.56
2018-06-14T02:53:11.220Z,16.51
2018-06-14T02:53:51.793Z,16.47
2018-06-14T02:54:32.350Z,16.47
2018-06-14T02:55:12.995Z,16.46
2018-06-14T02:55:53.567Z,16.46
2018-06-14T02:56:34.129Z,16.46
2018-06-14T02:57:14.792Z,16.46
2018-06-14T02:57:55.302Z,16.46
2018-06-14T02:58:35.869Z,16.46
2018-06-14T02:59:16.421Z,16.42
2018-06-14T02:59:57.011Z,16.41
2018-06-14T03:00:37.592Z,16.36
2018-06-14T03:01:18.148Z,16.35
2018-06-14T03:01:58.710Z,16.41
2018-06-14T03:02:39.276Z,16.33
2018-06-14T03:03:19.844Z,16.38
2018-06-14T03:04:00.416Z,16.32
2018-06-14T03:04:40.985Z,16.32
2018-06-14T03:05:21.585Z,16.32
2018-06-14T03:06:02.141Z,16.35
2018-06-14T03:06:42.714Z,16.26
2018-06-14T03:07:23.275Z,16.33
2018-06-14T03:08:03.863Z,16.31
2018-06-14T03:08:44.411Z,16.26
2018-06-14T03:09:24.951Z,16.29
2018-06-14T03:10:05.525Z,16.29
2018-06-14T03:10:46.090Z,16.23
2018-06-14T03:11:26.631Z,16.24
2018-06-14T03:12:07.174Z,16.2
2018-06-14T03:12:47.730Z,16.23
2018-06-14T03:13:28.287Z,16.23
2018-06-14T03:14:08.910Z,16.17
2018-06-14T03:14:49.464Z,16.23
2018-06-14T03:15:30.045Z,16.16
2018-06-14T03:16:10.606Z,16.2
2018-06-14T03:16:51.162Z,16.09
2018-06-14T03:17:31.742Z,16.15
2018-06-14T03:18:12.325Z,16.08
2018-06-14T03:18:52.877Z,16.12
2018-06-14T03:19:33.579Z,16.05
2018-06-14T03:20:14.178Z,16.12
2018-06-14T03:20:54.723Z,16.1
2018-06-14T03:21:35.291Z,16.13
2018-06-14T03:22:15.877Z,16.15
2018-06-14T03:22:56.378Z,15.98
2018-06-14T03:23:36.928Z,15.98
2018-06-14T03:24:17.487Z,16.02
2018-06-14T03:24:58.049Z,15.98
2018-06-14T03:25:38.587Z,16.08
2018-06-14T03:26:19.144Z,16.02
2018-06-14T03:26:59.688Z,16.09
2018-06-14T03:27:40.289Z,16.01
2018-06-14T03:28:20.851Z,16.08
2018-06-14T03:29:01.394Z,16.02
2018-06-14T03:29:41.947Z,15.92
2018-06-14T03:30:22.509Z,16.02
2018-06-14T03:31:03.115Z,15.98
2018-06-14T03:31:43.663Z,15.94
2018-06-14T03:32:24.226Z,15.98
2018-06-14T03:33:04.784Z,15.98
2018-06-14T03:33:45.341Z,15.98
2018-06-14T03:34:25.896Z,15.95
2018-06-14T03:35:06.457Z,15.95
2018-06-14T03:35:47.020Z,15.97
2018-06-14T03:36:27.569Z,15.98
2018-06-14T03:37:08.149Z,15.94
2018-06-14T03:37:48.712Z,15.91
2018-06-14T03:38:29.269Z,16.02
2018-06-14T03:39:09.820Z,15.97
2018-06-14T03:39:50.364Z,16
2018-06-14T03:40:30.916Z,15.97
2018-06-14T03:41:11.485Z,15.98
2018-06-14T03:41:52.046Z,15.95
2018-06-14T03:42:32.652Z,15.94
2018-06-14T03:43:13.189Z,16.01
2018-06-14T03:43:53.763Z,16
2018-06-14T03:44:34.321Z,16.04
2018-06-14T03:45:14.887Z,16.02
2018-06-14T03:45:55.441Z,16.04
2018-06-14T03:46:36.020Z,16
2018-06-14T03:47:16.583Z,16.09
2018-06-14T03:47:57.147Z,16.04
2018-06-14T03:48:37.733Z,16.02
2018-06-14T03:49:18.280Z,16.01
2018-06-14T03:49:58.872Z,16.05
2018-06-14T03:50:39.445Z,16.05
2018-06-14T03:51:19.983Z,16.04
2018-06-14T03:52:00.636Z,15.97
2018-06-14T03:52:41.110Z,16.01
2018-06-14T03:53:21.667Z,15.97
2018-06-14T03:54:02.230Z,16.01
2018-06-14T03:54:42.779Z,15.98
2018-06-14T03:55:23.334Z,16.02
2018-06-14T03:56:03.885Z,16.04
2018-06-14T03:56:44.443Z,15.98
2018-06-14T03:57:25.016Z,16
2018-06-14T03:58:05.600Z,16.08
2018-06-14T03:58:46.138Z,15.95
2018-06-14T03:59:26.704Z,15.92
2018-06-14T04:00:07.277Z,15.95
2018-06-14T04:00:47.842Z,16
2018-06-14T04:01:28.414Z,16
2018-06-14T04:02:08.988Z,16.02
2018-06-14T04:02:49.552Z,15.98
2018-06-14T04:03:30.125Z,15.97
2018-06-14T04:04:10.666Z,15.98
2018-06-14T04:04:51.234Z,15.97
2018-06-14T04:05:31.813Z,16
2018-06-14T04:06:12.383Z,16.09
2018-06-14T04:06:52.941Z,16.02
2018-06-14T04:07:33.524Z,16.1
2018-06-14T04:08:14.078Z,16.09
2018-06-14T04:08:54.655Z,16.1
2018-06-14T04:09:35.205Z,16
2018-06-14T04:10:15.793Z,16.1
2018-06-14T04:10:56.336Z,16.08
2018-06-14T04:11:36.894Z,16.1
2018-06-14T04:12:17.447Z,16.09
2018-06-14T04:12:58.045Z,16.08
2018-06-14T04:13:38.581Z,16.09
2018-06-14T04:14:19.151Z,16.05
2018-06-14T04:14:59.715Z,16.1
2018-06-14T04:15:40.286Z,16.15
2018-06-14T04:16:20.902Z,16.15
2018-06-14T04:17:01.450Z,16.09
2018-06-14T04:17:41.994Z,16.15
2018-06-14T04:18:22.560Z,16.17
2018-06-14T04:19:03.114Z,16.12
2018-06-14T04:19:43.666Z,16.17
2018-06-14T04:20:24.222Z,16.17
2018-06-14T04:21:04.767Z,16.2
2018-06-14T04:21:45.317Z,16.21
2018-06-14T04:22:25.900Z,16.26
2018-06-14T04:23:06.520Z,16.16
2018-06-14T04:23:47.060Z,16.16
2018-06-14T04:24:27.614Z,16.21
2018-06-14T04:25:08.152Z,16.21
2018-06-14T04:25:48.718Z,16.26
2018-06-14T04:26:29.289Z,16.21
2018-06-14T04:27:09.852Z,16.21
2018-06-14T04:27:50.457Z,16.2
2018-06-14T04:28:30.985Z,16.17
2018-06-14T04:29:11.575Z,16.21
2018-06-14T04:29:52.121Z,16.21
2018-06-14T04:30:32.667Z,16.21
2018-06-14T04:31:13.225Z,16.16
2018-06-14T04:31:53.779Z,16.23
2018-06-14T04:32:34.349Z,16.23
2018-06-14T04:33:14.908Z,16.33
2018-06-14T04:33:55.467Z,16.24
2018-06-14T04:34:36.026Z,16.29
2018-06-14T04:35:16.631Z,16.35
2018-06-14T04:35:57.185Z,16.35
2018-06-14T04:36:37.738Z,16.33
2018-06-14T04:37:18.291Z,16.29
2018-06-14T04:37:58.839Z,16.23
2018-06-14T04:38:39.406Z,16.26
2018-06-14T04:39:20.001Z,16.38
2018-06-14T04:40:00.511Z,16.26
2018-06-14T04:40:41.072Z,16.32
2018-06-14T04:41:21.632Z,16.31
2018-06-14T04:42:02.195Z,16.29
2018-06-14T04:42:42.757Z,16.28
2018-06-14T04:43:23.322Z,16.29
2018-06-14T04:44:03.948Z,16.26
2018-06-14T04:44:44.519Z,16.29
2018-06-14T04:45:25.083Z,16.33
2018-06-14T04:46:05.647Z,16.38
2018-06-14T04:46:46.198Z,16.36
2018-06-14T04:47:26.752Z,16.33
2018-06-14T04:48:07.304Z,16.33
2018-06-14T04:48:47.867Z,16.33
2018-06-14T04:49:28.433Z,16.38
2018-06-14T04:50:09.001Z,16.33
2018-06-14T04:50:49.576Z,16.39
2018-06-14T04:51:30.145Z,16.41
2018-06-14T04:52:10.706Z,16.42
2018-06-14T04:52:51.255Z,16.42
2018-06-14T04:53:31.852Z,16.46
2018-06-14T04:54:12.394Z,16.46
2018-06-14T04:54:53.046Z,16.42
2018-06-14T04:55:33.601Z,16.41
2018-06-14T04:56:15.290Z,16.41
2018-06-14T04:56:55.349Z,16.43
2018-06-14T04:57:35.907Z,16.43
2018-06-14T04:58:16.480Z,16.53
2018-06-14T04:58:57.104Z,16.5
2018-06-14T04:59:37.666Z,16.51
2018-06-14T05:00:18.230Z,16.56
2018-06-14T05:00:58.795Z,16.54
2018-06-14T05:01:39.361Z,16.51
2018-06-14T05:02:19.932Z,16.54
2018-06-14T05:03:00.498Z,16.53
2018-06-14T05:03:41.067Z,16.54
2018-06-14T05:04:21.630Z,16.56
2018-06-14T05:05:02.199Z,16.61
2018-06-14T05:05:42.754Z,16.57
2018-06-14T05:06:23.313Z,16.6
2018-06-14T05:07:03.882Z,16.56
2018-06-14T05:07:44.450Z,16.57
2018-06-14T05:08:25.022Z,16.56
2018-06-14T05:09:05.603Z,16.54
2018-06-14T05:09:46.172Z,16.57
2018-06-14T05:10:26.755Z,16.64
2018-06-14T05:11:07.335Z,16.61
2018-06-14T05:11:47.909Z,16.6
2018-06-14T05:12:28.461Z,16.66
2018-06-14T05:13:09.032Z,16.69
2018-06-14T05:13:49.621Z,16.83
2018-06-14T05:14:30.151Z,16.76
2018-06-14T05:15:10.731Z,16.94
2018-06-14T05:15:51.310Z,16.96
2018-06-14T05:16:31.861Z,17.06
2018-06-14T05:17:12.426Z,16.99
2018-06-14T05:17:52.960Z,17.16
2018-06-14T05:18:33.524Z,17.24
2018-06-14T05:19:14.062Z,17.24
2018-06-14T05:19:54.640Z,17.16
2018-06-14T05:20:35.192Z,17.23
2018-06-14T05:21:15.774Z,17.26
2018-06-14T05:21:56.340Z,17.26
2018-06-14T05:22:36.934Z,17.2
2018-06-14T05:23:17.472Z,17.16
2018-06-14T05:23:58.045Z,17.24
2018-06-14T05:24:38.605Z,17.2
2018-06-14T05:25:19.182Z,17.26
2018-06-14T05:25:59.720Z,17.31
2018-06-14T05:26:40.287Z,17.34
2018-06-14T05:27:20.868Z,17.33
2018-06-14T05:28:01.399Z,17.3
2018-06-14T05:28:41.988Z,17.26
2018-06-14T05:29:22.564Z,17.22
2018-06-14T05:30:03.127Z,17.24
2018-06-14T05:30:43.701Z,17.2
2018-06-14T05:31:24.293Z,17.19
2018-06-14T05:32:04.834Z,17.2
2018-06-14T05:32:45.402Z,17.16
2018-06-14T05:33:25.984Z,17.23
2018-06-14T05:34:06.592Z,17.24
2018-06-14T05:34:47.178Z,17.31
2018-06-14T05:35:27.745Z,17.36
2018-06-14T05:36:08.310Z,17.29
2018-06-14T05:36:48.890Z,17.31
2018-06-14T05:37:29.444Z,17.33
2018-06-14T05:38:10.041Z,17.36
2018-06-14T05:38:50.576Z,17.41
2018-06-14T05:39:38.079Z,17.38
2018-06-14T05:40:18.630Z,17.45
2018-06-14T05:40:59.202Z,17.44
2018-06-14T05:41:39.759Z,17.57
2018-06-14T05:42:20.312Z,17.64
2018-06-14T05:43:00.859Z,17.67
2018-06-14T05:43:41.440Z,17.65
2018-06-14T05:44:22.003Z,17.48
2018-06-14T05:45:02.574Z,17.48
2018-06-14T05:45:43.127Z,17.49
2018-06-14T05:46:23.688Z,17.44
2018-06-14T05:47:04.263Z,17.46
2018-06-14T05:47:44.856Z,17.48
2018-06-14T05:48:25.420Z,17.45
2018-06-14T05:49:05.995Z,17.49
2018-06-14T05:49:46.539Z,17.59
2018-06-14T05:50:27.070Z,17.46
2018-06-14T05:51:07.636Z,17.44
2018-06-14T05:51:48.240Z,17.39
2018-06-14T05:52:28.810Z,17.49
2018-06-14T05:53:09.375Z,17.41
2018-06-14T05:53:49.931Z,17.49
2018-06-14T05:54:30.492Z,17.41
2018-06-14T05:55:11.056Z,17.68
2018-06-14T05:55:51.622Z,17.72
2018-06-14T05:56:32.181Z,17.72
2018-06-14T05:57:12.740Z,17.72
2018-06-14T05:57:53.304Z,17.85
2018-06-14T05:58:33.856Z,17.89
2018-06-14T05:59:14.435Z,17.89
2018-06-14T05:59:55.072Z,17.87
2018-06-14T06:00:35.616Z,17.79
2018-06-14T06:01:16.202Z,17.85
2018-06-14T06:01:56.755Z,17.71
2018-06-14T06:02:37.364Z,17.76
2018-06-14T06:03:17.935Z,17.72
2018-06-14T06:03:58.489Z,17.74
2018-06-14T06:04:39.050Z,17.59
2018-06-14T06:05:19.615Z,17.6
2018-06-14T06:06:00.178Z,17.7
2018-06-14T06:06:40.752Z,17.76
2018-06-14T06:07:21.322Z,17.82
2018-06-14T06:08:01.887Z,17.92
2018-06-14T06:08:42.442Z,17.95
2018-06-14T06:09:22.997Z,17.97
2018-06-14T06:10:03.564Z,18.01
2018-06-14T06:10:44.116Z,18
2018-06-14T06:11:24.677Z,18.04
2018-06-14T06:12:05.247Z,18.04
2018-06-14T06:12:45.821Z,18.03
2018-06-14T06:13:26.394Z,18.08
2018-06-14T06:14:06.956Z,18.2
2018-06-14T06:14:47.518Z,18.37
2018-06-14T06:15:29.068Z,18.44
2018-06-14T06:16:10.675Z,18.62
2018-06-14T06:16:51.213Z,18.66
2018-06-14T06:17:31.785Z,18.86
2018-06-14T06:18:12.363Z,19.04
2018-06-14T06:18:52.949Z,19.02
2018-06-14T06:19:33.513Z,19.15
2018-06-14T06:20:14.114Z,19.18
2018-06-14T06:20:54.650Z,19.37
2018-06-14T06:21:35.206Z,19.52
2018-06-14T06:22:15.812Z,19.59
2018-06-14T06:22:56.420Z,19.63
2018-06-14T06:23:37.004Z,19.77
2018-06-14T06:24:17.567Z,19.91
2018-06-14T06:24:58.177Z,20.03
2018-06-14T06:25:39.136Z,20.09
2018-06-14T06:26:19.786Z,20.19
2018-06-14T06:27:00.280Z,20.22
2018-06-14T06:27:40.920Z,20.37
2018-06-14T06:28:21.488Z,20.26
2018-06-14T06:29:02.061Z,20.29
2018-06-14T06:29:42.624Z,20.19
2018-06-14T06:30:23.221Z,20.18
2018-06-14T06:31:03.812Z,20.25
2018-06-14T06:31:44.452Z,20.19
2018-06-14T06:32:25.009Z,20.18
2018-06-14T06:33:05.662Z,20.1
2018-06-14T06:33:46.199Z,20.16
2018-06-14T06:34:26.852Z,20.21
2018-06-14T06:35:07.498Z,20.07
2018-06-14T06:35:48.068Z,20.09
2018-06-14T06:36:28.638Z,20.03
2018-06-14T06:37:09.200Z,20.11
2018-06-14T06:37:49.922Z,20.1
2018-06-14T06:38:30.494Z,20.07
2018-06-14T06:39:11.422Z,20
2018-06-14T06:39:51.985Z,20.03
2018-06-14T06:40:32.552Z,19.94
2018-06-14T06:41:13.121Z,19.96
2018-06-14T06:41:53.716Z,19.96
2018-06-14T06:42:34.300Z,19.91
2018-06-14T06:43:14.840Z,20.04
2018-06-14T06:43:55.459Z,20.03
2018-06-14T06:44:36.101Z,20.09
2018-06-14T06:45:16.680Z,20.1
2018-06-14T06:45:57.346Z,20.1
2018-06-14T06:46:37.916Z,20.22
2018-06-14T06:47:18.626Z,20.02
2018-06-14T06:47:59.211Z,20.03
2018-06-14T06:48:39.773Z,19.95
2018-06-14T06:49:20.358Z,19.91
2018-06-14T06:50:00.984Z,19.91
2018-06-14T06:50:41.552Z,20.07
2018-06-14T06:51:22.194Z,20.16
2018-06-14T06:52:02.768Z,20.25
2018-06-14T06:52:43.352Z,20.41
2018-06-14T06:53:24.030Z,20.41
2018-06-14T06:54:04.574Z,20.39
2018-06-14T06:54:45.132Z,20.51
2018-06-14T06:55:25.742Z,20.43
2018-06-14T06:56:06.332Z,20.5
2018-06-14T06:56:46.881Z,20.51
2018-06-14T06:57:27.512Z,20.59
2018-06-14T06:58:08.088Z,20.74
2018-06-14T06:58:48.688Z,20.72
2018-06-14T06:59:29.212Z,20.81
2018-06-14T07:00:09.864Z,20.67
2018-06-14T07:00:50.467Z,20.69
2018-06-14T07:01:31.049Z,20.55
2018-06-14T07:02:11.658Z,20.41
2018-06-14T07:02:52.350Z,20.36
2018-06-14T07:03:32.959Z,20.39
2018-06-14T07:04:13.588Z,20.31
2018-06-14T07:04:54.170Z,20.26
2018-06-14T07:05:34.748Z,20.44
2018-06-14T07:06:15.427Z,20.48
2018-06-14T07:06:55.892Z,20.6
2018-06-14T07:07:36.489Z,20.65
2018-06-14T07:08:17.055Z,20.8
2018-06-14T07:08:57.665Z,20.9
2018-06-14T07:09:38.249Z,20.96
2018-06-14T07:10:18.832Z,20.95
2018-06-14T07:10:59.405Z,21.05
2018-06-14T07:11:39.985Z,20.85
2018-06-14T07:12:20.555Z,20.84
2018-06-14T07:13:01.097Z,20.78
2018-06-14T07:13:41.675Z,20.7
2018-06-14T07:14:22.252Z,20.58
2018-06-14T07:15:02.830Z,20.5
2018-06-14T07:15:43.408Z,20.48
2018-06-14T07:16:23.969Z,20.44
2018-06-14T07:17:04.532Z,20.48
2018-06-14T07:17:45.120Z,20.39
2018-06-14T07:18:25.677Z,20.39
2018-06-14T07:19:06.241Z,20.29
2018-06-14T07:19:46.866Z,20.31
2018-06-14T07:20:27.448Z,20.29
2018-06-14T07:21:08.042Z,20.28
2018-06-14T07:21:51.061Z,20.22
2018-06-14T07:22:31.568Z,20.28
2018-06-14T07:23:12.146Z,20.31
2018-06-14T07:23:52.729Z,20.18
2018-06-14T07:24:33.325Z,20.34
2018-06-14T07:25:13.877Z,20.39
2018-06-14T07:25:54.434Z,20.26
2018-06-14T07:26:35.009Z,20.24
2018-06-14T07:27:15.607Z,20.25
2018-06-14T07:27:56.193Z,20.14
2018-06-14T07:28:36.751Z,20.21
2018-06-14T07:29:17.309Z,20.14
2018-06-14T07:29:57.861Z,20.16
2018-06-14T07:30:38.576Z,20.26
2018-06-14T07:31:19.234Z,20.26
2018-06-14T07:32:00.097Z,20.4
2018-06-14T07:32:40.752Z,20.36
2018-06-14T07:33:21.402Z,20.44
2018-06-14T07:34:01.957Z,20.48
2018-06-14T07:34:42.529Z,20.47
2018-06-14T07:35:23.105Z,20.44
2018-06-14T07:36:03.677Z,20.48
2018-06-14T07:36:44.249Z,20.51
2018-06-14T07:37:24.843Z,20.58
2018-06-14T07:38:05.453Z,20.58
2018-06-14T07:38:46.014Z,20.6
2018-06-14T07:39:26.565Z,20.62
2018-06-14T07:40:07.146Z,20.55
2018-06-14T07:40:47.716Z,20.6
2018-06-14T07:41:28.305Z,20.52
2018-06-14T07:42:08.886Z,20.56
2018-06-14T07:42:49.449Z,20.52
2018-06-14T07:43:30.023Z,20.5
2018-06-14T07:44:10.615Z,20.48
2018-06-14T07:44:51.192Z,20.44
2018-06-14T07:45:31.795Z,20.39
2018-06-14T07:46:12.374Z,20.51
2018-06-14T07:46:52.939Z,20.5
2018-06-14T07:47:33.493Z,20.43
2018-06-14T07:48:14.043Z,20.39
2018-06-14T07:48:54.598Z,20.39
2018-06-14T07:49:35.188Z,20.39
2018-06-14T07:50:15.770Z,20.48
2018-06-14T07:50:56.348Z,20.44
2018-06-14T07:51:36.929Z,20.55
2018-06-14T07:52:17.499Z,20.74
2018-06-14T07:52:58.072Z,20.81
2018-06-14T07:53:38.668Z,21.06
2018-06-14T07:54:19.226Z,21.07
2018-06-14T07:54:59.805Z,21.17
2018-06-14T07:55:40.377Z,21.25
2018-06-14T07:56:20.972Z,21.33
2018-06-14T07:57:01.541Z,21.46
2018-06-14T07:57:42.128Z,21.5
2018-06-14T07:58:22.697Z,21.61
2018-06-14T07:59:03.267Z,21.7
2018-06-14T07:59:43.843Z,21.75
2018-06-14T08:00:24.476Z,21.79
2018-06-14T08:01:05.087Z,21.85
2018-06-14T08:01:45.676Z,21.95
2018-06-14T08:02:26.239Z,21.93
2018-06-14T08:03:06.823Z,21.96
2018-06-14T08:03:47.396Z,21.92
2018-06-14T08:04:27.972Z,21.88
2018-06-14T08:05:08.546Z,21.67
2018-06-14T08:05:49.104Z,21.5
2018-06-14T08:06:29.728Z,21.5
2018-06-14T08:07:10.256Z,21.36
2018-06-14T08:07:50.833Z,21.2
2018-06-14T08:08:31.377Z,21.12
2018-06-14T08:09:11.952Z,20.93
2018-06-14T08:09:52.558Z,20.9
2018-06-14T08:10:33.150Z,20.78
2018-06-14T08:11:13.708Z,20.75
2018-06-14T08:11:54.274Z,20.67
2018-06-14T08:12:34.891Z,20.7
2018-06-14T08:13:15.410Z,20.65
2018-06-14T08:13:55.976Z,20.63
2018-06-14T08:14:36.555Z,20.56
2018-06-14T08:15:17.121Z,20.58
2018-06-14T08:15:57.694Z,20.51
2018-06-14T08:16:38.275Z,20.32
2018-06-14T08:17:18.827Z,20.43
2018-06-14T08:17:59.385Z,20.39
2018-06-14T08:18:39.948Z,20.36
2018-06-14T08:19:20.491Z,20.26
2018-06-14T08:20:01.068Z,20.32
2018-06-14T08:20:41.641Z,20.32
2018-06-14T08:21:22.191Z,20.28
2018-06-14T08:22:02.771Z,20.4
2018-06-14T08:22:43.324Z,20.44
2018-06-14T08:23:23.896Z,20.5
2018-06-14T08:24:04.455Z,20.62
2018-06-14T08:24:45.017Z,20.6
2018-06-14T08:25:25.588Z,20.6
2018-06-14T08:26:06.167Z,20.72
2018-06-14T08:26:46.733Z,20.81
2018-06-14T08:27:27.299Z,20.95
2018-06-14T08:28:07.881Z,21.02
2018-06-14T08:28:48.439Z,21.11
2018-06-14T08:29:29.153Z,21.2
2018-06-14T08:30:09.712Z,21.27
2018-06-14T08:30:50.275Z,21.36
2018-06-14T08:31:30.877Z,21.54
2018-06-14T08:32:11.446Z,21.4
2018-06-14T08:32:52.015Z,21.48
2018-06-14T08:33:32.600Z,21.48
2018-06-14T08:34:13.127Z,21.39
2018-06-14T08:34:53.707Z,21.32
2018-06-14T08:35:34.264Z,21.15
2018-06-14T08:36:14.821Z,21.12
2018-06-14T08:36:55.399Z,21.06
2018-06-14T08:37:35.954Z,21.09
2018-06-14T08:38:16.529Z,20.93
2018-06-14T08:38:57.100Z,20.95
2018-06-14T08:39:37.669Z,20.93
2018-06-14T08:40:18.253Z,20.84
2018-06-14T08:40:58.804Z,20.77
2018-06-14T08:41:39.377Z,20.74
2018-06-14T08:42:19.949Z,20.69
2018-06-14T08:43:00.546Z,20.59
2018-06-14T08:43:41.239Z,20.59
2018-06-14T08:44:21.709Z,20.52